Time;durP1;ratioP1;P1;durP2;ratioP2;P2;SDS_P1;SDS_P2;PMS_P1;PMS_P2;Temp;Humidity;BMP_temperature;BMP_pressure;BME280_temperature;BME280_humidity;BME280_pressure;Samples;Min_cycle;Max_cycle;Signal;HPM_P1;HPM_P2
2023/07/10 00:01:28;;;;;;;21.30;13.90;;;;;;;;;;5047825;28;20470;-70
2023/07/10 00:03:54;;;;;;;21.00;13.20;;;;;;;;;;5050161;28;20106;-70
2023/07/10 00:06:21;;;;;;;21.55;13.07;;;;;;;;;;5029602;28;20040;-70
2023/07/10 00:08:47;;;;;;;20.85;12.57;;;;;;;;;;5040975;28;20063;-70
2023/07/10 00:11:15;;;;;;;19.17;12.20;;;;;;;;;;5029157;28;20036;-70
2023/07/10 00:13:41;;;;;;;19.65;11.95;;;;;;;;;;5012938;28;20021;-69
2023/07/10 00:16:12;;;;;;;20.60;12.10;;;;;;;;;;5047415;28;20064;-69
2023/07/10 00:18:38;;;;;;;22.88;12.82;;;;;;;;;;5029189;28;20530;-70
2023/07/10 00:21:05;;;;;;;24.70;13.10;;;;;;;;;;5027551;28;20041;-70
2023/07/10 00:23:31;;;;;;;19.40;13.43;;;;;;;;;;5029187;28;20144;-69
2023/07/10 00:25:57;;;;;;;18.98;13.60;;;;;;;;;;5046332;28;20048;-71
2023/07/10 00:28:23;;;;;;;23.65;13.32;;;;;;;;;;5041706;28;20041;-69
2023/07/10 00:30:50;;;;;;;21.10;13.25;;;;;;;;;;5039405;28;20064;-69
2023/07/10 00:33:18;;;;;;;20.92;13.15;;;;;;;;;;4992747;28;20159;-69
2023/07/10 00:35:45;;;;;;;18.83;12.07;;;;;;;;;;5046314;28;20020;-71
2023/07/10 00:38:19;;;;;;;15.23;11.88;;;;;;;;;;5044252;28;20029;-70
2023/07/10 00:40:46;;;;;;;16.48;10.32;;;;;;;;;;5027636;28;20537;-69
2023/07/10 00:43:25;;;;;;;17.83;11.57;;;;;;;;;;5046326;28;20111;-70
2023/07/10 00:45:52;;;;;;;19.35;11.02;;;;;;;;;;5047981;28;20078;-69
2023/07/10 00:48:19;;;;;;;20.52;11.90;;;;;;;;;;5031199;28;20037;-70
2023/07/10 00:50:48;;;;;;;22.48;11.77;;;;;;;;;;5044412;28;20032;-69
2023/07/10 00:53:19;;;;;;;19.25;11.60;;;;;;;;;;5039839;28;20592;-69
2023/07/10 00:55:46;;;;;;;16.38;10.65;;;;;;;;;;5026801;28;20387;-68
2023/07/10 00:58:12;;;;;;;14.32;9.73;;;;;;;;;;5043181;28;20043;-69
2023/07/10 01:00:38;;;;;;;17.05;9.95;;;;;;;;;;5045291;28;20024;-69
2023/07/10 01:03:06;;;;;;;23.40;10.25;;;;;;;;;;5024547;28;20048;-70
2023/07/10 01:05:32;;;;;;;15.88;9.85;;;;;;;;;;5027749;28;20028;-70
2023/07/10 01:08:01;;;;;;;18.77;9.57;;;;;;;;;;5045710;28;20124;-70
2023/07/10 01:10:27;;;;;;;16.83;9.18;;;;;;;;;;5030712;28;20040;-70
2023/07/10 01:12:53;;;;;;;22.65;9.98;;;;;;;;;;5050023;28;20466;-70
2023/07/10 01:15:20;;;;;;;15.52;9.82;;;;;;;;;;5049182;28;20370;-70
2023/07/10 01:17:47;;;;;;;17.23;9.80;;;;;;;;;;5046053;28;20116;-69
2023/07/10 01:20:29;;;;;;;16.15;10.07;;;;;;;;;;5047418;28;20095;-70
2023/07/10 01:22:55;;;;;;;17.45;9.77;;;;;;;;;;5048090;28;20140;-69
2023/07/10 01:25:21;;;;;;;16.33;9.70;;;;;;;;;;5023274;28;20057;-69
2023/07/10 01:27:47;;;;;;;19.67;10.73;;;;;;;;;;5042794;28;20056;-69
2023/07/10 01:30:34;;;;;;;25.48;10.80;;;;;;;;;;5054452;28;20482;-69
2023/07/10 01:33:00;;;;;;;18.92;10.45;;;;;;;;;;5028666;28;20029;-69
2023/07/10 01:35:28;;;;;;;18.17;10.70;;;;;;;;;;5020564;28;20524;-69
2023/07/10 01:37:54;;;;;;;16.17;10.75;;;;;;;;;;5047211;28;20082;-69
2023/07/10 01:40:22;;;;;;;19.65;10.57;;;;;;;;;;5047430;28;20037;-70
2023/07/10 01:42:48;;;;;;;20.95;11.00;;;;;;;;;;5044631;28;20041;-69
2023/07/10 01:45:15;;;;;;;25.83;10.80;;;;;;;;;;5048755;28;20033;-71
2023/07/10 01:47:41;;;;;;;20.30;10.15;;;;;;;;;;5050246;28;20020;-71
2023/07/10 01:50:07;;;;;;;19.92;9.90;;;;;;;;;;5048902;28;20029;-70
2023/07/10 01:52:34;;;;;;;16.77;11.00;;;;;;;;;;5030430;28;20095;-70
2023/07/10 01:55:00;;;;;;;20.85;10.85;;;;;;;;;;5048191;28;20037;-70
2023/07/10 01:57:26;;;;;;;21.05;11.57;;;;;;;;;;5049862;28;20020;-70
2023/07/10 01:59:53;;;;;;;22.17;10.85;;;;;;;;;;5035985;28;20029;-70
2023/07/10 02:02:19;;;;;;;20.83;11.10;;;;;;;;;;5027607;28;20079;-69
2023/07/10 02:04:45;;;;;;;21.15;11.40;;;;;;;;;;5029306;28;20441;-70
2023/07/10 02:07:11;;;;;;;18.33;10.60;;;;;;;;;;5030993;28;20090;-69
2023/07/10 02:09:37;;;;;;;24.08;11.27;;;;;;;;;;5031645;28;20024;-69
2023/07/10 02:12:05;;;;;;;25.13;12.38;;;;;;;;;;5031350;28;20057;-70
2023/07/10 02:14:31;;;;;;;23.63;12.52;;;;;;;;;;5031258;28;20044;-70
2023/07/10 02:16:57;;;;;;;27.15;13.13;;;;;;;;;;5038075;28;20087;-70
2023/07/10 02:19:23;;;;;;;28.33;12.38;;;;;;;;;;5029223;28;20032;-70
2023/07/10 02:21:49;;;;;;;26.92;10.70;;;;;;;;;;5012579;28;20028;-70
2023/07/10 02:24:16;;;;;;;21.02;11.82;;;;;;;;;;5028075;28;20120;-70
2023/07/10 02:26:42;;;;;;;25.17;12.55;;;;;;;;;;5042985;28;20122;-71
2023/07/10 02:29:09;;;;;;;24.02;13.00;;;;;;;;;;5043184;28;20087;-70
2023/07/10 02:31:36;;;;;;;23.83;12.55;;;;;;;;;;5042676;28;20091;-70
2023/07/10 02:34:02;;;;;;;25.90;12.15;;;;;;;;;;5045708;28;20060;-70
2023/07/10 02:36:29;;;;;;;24.88;13.57;;;;;;;;;;5046718;28;20061;-71
2023/07/10 02:38:56;;;;;;;27.33;13.52;;;;;;;;;;5044932;28;20534;-70
2023/07/10 02:41:22;;;;;;;26.25;14.57;;;;;;;;;;5044927;28;20394;-71
2023/07/10 02:43:48;;;;;;;30.08;14.63;;;;;;;;;;5035373;28;20275;-71
2023/07/10 02:46:14;;;;;;;29.23;15.90;;;;;;;;;;5013712;28;20037;-70
2023/07/10 02:48:40;;;;;;;34.08;16.48;;;;;;;;;;5048158;28;20116;-71
2023/07/10 02:51:07;;;;;;;30.67;15.68;;;;;;;;;;5048391;28;20037;-70
2023/07/10 02:53:33;;;;;;;25.63;15.10;;;;;;;;;;5028941;28;20147;-71
2023/07/10 02:55:59;;;;;;;39.15;16.70;;;;;;;;;;5047451;28;20025;-70
2023/07/10 02:58:25;;;;;;;31.33;14.93;;;;;;;;;;5041460;28;20021;-71
2023/07/10 03:00:55;;;;;;;27.95;15.10;;;;;;;;;;5045924;28;20037;-71
2023/07/10 03:03:21;;;;;;;28.92;14.57;;;;;;;;;;5049446;28;20025;-71
2023/07/10 03:05:58;;;;;;;29.50;14.43;;;;;;;;;;5008605;28;20034;-71
2023/07/10 03:08:25;;;;;;;26.55;13.73;;;;;;;;;;5027728;28;20025;-71
2023/07/10 03:11:04;;;;;;;26.90;14.88;;;;;;;;;;5041235;28;20490;-71
2023/07/10 03:13:32;;;;;;;27.00;14.65;;;;;;;;;;5043807;28;20082;-71
2023/07/10 03:16:09;;;;;;;26.65;15.15;;;;;;;;;;5047651;28;20068;-71
2023/07/10 03:18:55;;;;;;;28.02;14.75;;;;;;;;;;5046839;28;20021;-71
2023/07/10 03:21:21;;;;;;;27.83;14.70;;;;;;;;;;5031234;28;20084;-71
2023/07/10 03:23:48;;;;;;;30.15;14.15;;;;;;;;;;5048799;28;20045;-69
2023/07/10 03:26:14;;;;;;;30.73;14.75;;;;;;;;;;5048472;28;20090;-70
2023/07/10 03:28:41;;;;;;;29.40;15.13;;;;;;;;;;5048989;28;20139;-72
2023/07/10 03:31:07;;;;;;;34.15;16.48;;;;;;;;;;5048508;28;20097;-71
2023/07/10 03:33:34;;;;;;;36.67;18.75;;;;;;;;;;5047540;28;20044;-69
2023/07/10 03:36:01;;;;;;;37.33;19.08;;;;;;;;;;5027081;28;20032;-69
2023/07/10 03:38:27;;;;;;;31.90;16.95;;;;;;;;;;5046423;28;20053;-70
2023/07/10 03:40:54;;;;;;;33.38;18.10;;;;;;;;;;5045344;28;20024;-70
2023/07/10 03:43:20;;;;;;;35.85;18.83;;;;;;;;;;5038295;28;20029;-70
2023/07/10 03:45:46;;;;;;;35.20;19.02;;;;;;;;;;5047186;28;20104;-72
2023/07/10 03:48:12;;;;;;;39.33;20.95;;;;;;;;;;5027706;28;20029;-71
2023/07/10 03:50:38;;;;;;;31.85;19.27;;;;;;;;;;5045490;28;20171;-70
2023/07/10 03:53:05;;;;;;;36.85;18.77;;;;;;;;;;5046571;28;20025;-70
2023/07/10 03:55:31;;;;;;;37.88;19.27;;;;;;;;;;5048491;28;20099;-70
2023/07/10 03:57:57;;;;;;;33.50;18.17;;;;;;;;;;5046256;28;20037;-70
2023/07/10 04:00:23;;;;;;;33.78;17.30;;;;;;;;;;5047709;28;20033;-70
2023/07/10 04:02:49;;;;;;;33.65;18.15;;;;;;;;;;5051514;28;20041;-71
2023/07/10 04:05:15;;;;;;;30.20;16.50;;;;;;;;;;5046025;28;20064;-69
2023/07/10 04:07:42;;;;;;;31.10;16.42;;;;;;;;;;5043282;28;20636;-70
2023/07/10 04:10:08;;;;;;;29.30;16.17;;;;;;;;;;5028794;28;20048;-71
2023/07/10 04:12:34;;;;;;;34.10;16.95;;;;;;;;;;5030905;28;20021;-71
2023/07/10 04:15:00;;;;;;;31.90;16.80;;;;;;;;;;5046578;28;20112;-70
2023/07/10 04:17:26;;;;;;;26.98;15.43;;;;;;;;;;5048488;28;20025;-70
2023/07/10 04:19:52;;;;;;;29.67;15.77;;;;;;;;;;5043458;28;20063;-70
2023/07/10 04:22:18;;;;;;;27.60;14.80;;;;;;;;;;5029467;28;20091;-70
2023/07/10 04:24:45;;;;;;;33.65;15.90;;;;;;;;;;5042634;28;20025;-70
2023/07/10 04:27:11;;;;;;;31.58;16.02;;;;;;;;;;5046894;28;20103;-70
2023/07/10 04:29:38;;;;;;;30.75;16.13;;;;;;;;;;5044760;28;20053;-71
2023/07/10 04:32:04;;;;;;;35.03;15.40;;;;;;;;;;5047919;28;20048;-71
2023/07/10 04:34:30;;;;;;;28.65;15.05;;;;;;;;;;5046917;28;20096;-71
2023/07/10 04:36:56;;;;;;;20.83;14.13;;;;;;;;;;5030278;28;20475;-71
2023/07/10 04:39:22;;;;;;;20.77;12.43;;;;;;;;;;5050754;28;20080;-71
2023/07/10 04:41:48;;;;;;;20.17;12.35;;;;;;;;;;5030512;28;20028;-70
2023/07/10 04:44:14;;;;;;;31.95;11.70;;;;;;;;;;5049395;28;20040;-72
2023/07/10 04:46:41;;;;;;;21.08;11.60;;;;;;;;;;5037285;28;20423;-70
2023/07/10 04:49:07;;;;;;;20.63;10.57;;;;;;;;;;5052114;28;20115;-72
2023/07/10 04:51:33;;;;;;;16.60;9.27;;;;;;;;;;5058152;28;20087;-70
2023/07/10 04:53:59;;;;;;;17.63;8.07;;;;;;;;;;5033129;28;20032;-71
2023/07/10 04:56:26;;;;;;;18.92;7.88;;;;;;;;;;5032839;28;20067;-70
2023/07/10 04:58:53;;;;;;;11.57;6.60;;;;;;;;;;5036320;28;20056;-70
2023/07/10 05:01:21;;;;;;;16.90;7.05;;;;;;;;;;5055343;28;20037;-70
2023/07/10 05:03:47;;;;;;;13.52;7.05;;;;;;;;;;5051400;28;20066;-70
2023/07/10 05:06:14;;;;;;;16.05;5.82;;;;;;;;;;5051020;28;20033;-71
2023/07/10 05:08:40;;;;;;;13.23;6.18;;;;;;;;;;5051063;28;20131;-70
2023/07/10 05:11:06;;;;;;;10.85;5.30;;;;;;;;;;5054316;28;20045;-71
2023/07/10 05:13:33;;;;;;;14.10;5.10;;;;;;;;;;5051409;28;20399;-72
2023/07/10 05:15:59;;;;;;;11.90;5.05;;;;;;;;;;5049446;28;20037;-71
2023/07/10 05:18:26;;;;;;;12.50;5.30;;;;;;;;;;5059343;28;20060;-71
2023/07/10 05:20:52;;;;;;;11.73;4.68;;;;;;;;;;5036538;28;20120;-71
2023/07/10 05:23:19;;;;;;;11.90;5.55;;;;;;;;;;5055060;28;20025;-70
2023/07/10 05:26:14;;;;;;;9.45;4.10;;;;;;;;;;5050555;28;20040;-71
2023/07/10 05:28:41;;;;;;;13.88;3.80;;;;;;;;;;5031681;28;20032;-72
2023/07/10 05:31:08;;;;;;;9.90;3.55;;;;;;;;;;5055005;28;20021;-71
2023/07/10 05:33:34;;;;;;;10.90;4.22;;;;;;;;;;5051184;28;20040;-72
2023/07/10 05:36:01;;;;;;;14.13;3.50;;;;;;;;;;5050470;28;20119;-71
2023/07/10 05:38:28;;;;;;;9.02;3.10;;;;;;;;;;5047108;28;20032;-71
2023/07/10 05:40:55;;;;;;;9.05;3.65;;;;;;;;;;5047563;28;20021;-70
2023/07/10 05:43:21;;;;;;;10.52;3.25;;;;;;;;;;5052414;28;20025;-70
2023/07/10 05:45:48;;;;;;;7.88;3.35;;;;;;;;;;5016844;28;20189;-71
2023/07/10 05:48:15;;;;;;;8.00;3.15;;;;;;;;;;5030585;28;20031;-72
2023/07/10 05:50:43;;;;;;;12.93;3.10;;;;;;;;;;5052637;28;20096;-71
2023/07/10 05:53:09;;;;;;;10.13;3.17;;;;;;;;;;5049950;28;20405;-72
2023/07/10 05:55:35;;;;;;;11.55;3.80;;;;;;;;;;5052982;28;20143;-71
2023/07/10 05:58:02;;;;;;;10.18;3.03;;;;;;;;;;5049093;28;20032;-71
2023/07/10 06:00:28;;;;;;;10.40;2.80;;;;;;;;;;5032847;28;20033;-72
2023/07/10 06:02:54;;;;;;;9.45;2.95;;;;;;;;;;5032564;28;20048;-71
2023/07/10 06:05:20;;;;;;;8.68;2.90;;;;;;;;;;5056061;28;20043;-71
2023/07/10 06:07:46;;;;;;;7.82;3.17;;;;;;;;;;5052244;28;20017;-71
2023/07/10 06:10:12;;;;;;;10.93;2.90;;;;;;;;;;5050896;28;20055;-71
2023/07/10 06:12:41;;;;;;;10.77;3.13;;;;;;;;;;5032979;28;20037;-71
2023/07/10 06:15:07;;;;;;;8.18;2.65;;;;;;;;;;5032896;28;20104;-72
2023/07/10 06:17:33;;;;;;;10.52;2.63;;;;;;;;;;5047910;28;20033;-73
2023/07/10 06:19:59;;;;;;;10.60;2.83;;;;;;;;;;5031880;28;20033;-73
2023/07/10 06:22:25;;;;;;;9.30;2.80;;;;;;;;;;5047568;28;20029;-72
2023/07/10 06:24:52;;;;;;;10.02;2.60;;;;;;;;;;5032440;28;20025;-70
2023/07/10 06:27:18;;;;;;;9.52;2.90;;;;;;;;;;5022337;28;20083;-71
2023/07/10 06:29:44;;;;;;;9.55;2.75;;;;;;;;;;5038954;28;20021;-71
2023/07/10 06:32:10;;;;;;;10.90;2.90;;;;;;;;;;5008757;28;20045;-72
2023/07/10 06:34:36;;;;;;;12.38;3.10;;;;;;;;;;5024204;28;20033;-71
2023/07/10 06:37:02;;;;;;;12.90;3.55;;;;;;;;;;5035833;28;20120;-72
2023/07/10 06:39:28;;;;;;;10.30;3.22;;;;;;;;;;5019417;28;20047;-72
2023/07/10 06:41:56;;;;;;;9.57;2.90;;;;;;;;;;5046482;28;20454;-72
2023/07/10 06:44:22;;;;;;;7.95;2.70;;;;;;;;;;5038648;28;20037;-71
2023/07/10 06:46:48;;;;;;;15.35;3.10;;;;;;;;;;5046116;28;20044;-76
2023/07/10 06:49:14;;;;;;;9.93;3.03;;;;;;;;;;5024002;28;20040;-71
2023/07/10 06:51:40;;;;;;;17.25;3.55;;;;;;;;;;5042825;28;20075;-69
2023/07/10 06:54:08;;;;;;;14.93;3.38;;;;;;;;;;5024403;28;20060;-71
2023/07/10 06:56:34;;;;;;;12.05;3.05;;;;;;;;;;5039751;28;20063;-70
2023/07/10 06:59:00;;;;;;;11.75;3.20;;;;;;;;;;5018075;28;20098;-70
2023/07/10 07:01:45;;;;;;;8.10;2.75;;;;;;;;;;5041616;28;20057;-70
2023/07/10 07:04:11;;;;;;;14.73;3.35;;;;;;;;;;5043989;28;20056;-71
2023/07/10 07:06:38;;;;;;;12.75;3.05;;;;;;;;;;5044933;28;20051;-71
2023/07/10 07:09:04;;;;;;;13.13;2.70;;;;;;;;;;5038956;28;20045;-72
2023/07/10 07:11:30;;;;;;;12.82;3.05;;;;;;;;;;5043045;28;20043;-69
2023/07/10 07:13:56;;;;;;;14.38;3.22;;;;;;;;;;5043431;28;20100;-70
2023/07/10 07:16:22;;;;;;;10.35;3.00;;;;;;;;;;5042917;28;20108;-71
2023/07/10 07:18:50;;;;;;;10.75;3.10;;;;;;;;;;5026765;28;20047;-71
2023/07/10 07:21:16;;;;;;;10.75;3.00;;;;;;;;;;5045955;28;20044;-70
2023/07/10 07:23:42;;;;;;;16.52;3.40;;;;;;;;;;5027005;28;20139;-70
2023/07/10 07:26:08;;;;;;;10.60;3.00;;;;;;;;;;5047626;28;20490;-70
2023/07/10 07:28:35;;;;;;;14.85;3.85;;;;;;;;;;5044196;28;20033;-71
2023/07/10 07:31:02;;;;;;;19.48;3.28;;;;;;;;;;5044040;28;20047;-71
2023/07/10 07:33:28;;;;;;;13.32;3.15;;;;;;;;;;5044752;28;20052;-71
2023/07/10 07:35:54;;;;;;;20.10;4.43;;;;;;;;;;5045566;28;20028;-71
2023/07/10 07:38:22;;;;;;;17.92;2.83;;;;;;;;;;5032063;28;20037;-71
2023/07/10 07:40:48;;;;;;;15.38;3.33;;;;;;;;;;5031259;28;20025;-71
2023/07/10 07:43:16;;;;;;;15.82;3.67;;;;;;;;;;5027128;28;20086;-69
2023/07/10 07:45:56;;;;;;;15.40;3.25;;;;;;;;;;5045849;28;20033;-70
2023/07/10 07:48:23;;;;;;;9.90;2.50;;;;;;;;;;5046929;28;20056;-70
2023/07/10 07:51:02;;;;;;;21.30;4.00;;;;;;;;;;5049510;28;20052;-71
2023/07/10 07:53:29;;;;;;;12.15;2.92;;;;;;;;;;5048656;28;20025;-71
2023/07/10 07:55:55;;;;;;;11.60;2.70;;;;;;;;;;5048313;28;20039;-69
2023/07/10 07:58:22;;;;;;;17.45;3.05;;;;;;;;;;5049025;28;20028;-70
2023/07/10 08:00:49;;;;;;;13.02;2.92;;;;;;;;;;5029975;28;20032;-70
2023/07/10 08:03:15;;;;;;;19.27;3.40;;;;;;;;;;5042680;28;20036;-71
2023/07/10 08:05:41;;;;;;;12.25;2.95;;;;;;;;;;5048073;28;20049;-70
2023/07/10 08:08:09;;;;;;;14.85;3.20;;;;;;;;;;5046639;28;20040;-70
2023/07/10 08:10:40;;;;;;;14.57;3.33;;;;;;;;;;5046059;28;20041;-70
2023/07/10 08:13:08;;;;;;;13.88;3.17;;;;;;;;;;5029098;28;20047;-71
2023/07/10 08:15:34;;;;;;;14.55;3.05;;;;;;;;;;5045094;28;20041;-70
2023/07/10 08:18:00;;;;;;;14.18;3.20;;;;;;;;;;5015182;28;20086;-70
2023/07/10 08:20:26;;;;;;;15.60;3.05;;;;;;;;;;5047632;28;20029;-70
2023/07/10 08:22:52;;;;;;;13.23;2.72;;;;;;;;;;5023576;28;20033;-70
2023/07/10 08:25:18;;;;;;;15.10;3.47;;;;;;;;;;5040342;28;20586;-70
2023/07/10 08:27:45;;;;;;;10.38;3.00;;;;;;;;;;5028150;28;20079;-71
2023/07/10 08:30:12;;;;;;;15.70;3.10;;;;;;;;;;5047293;28;20037;-70
2023/07/10 08:32:39;;;;;;;14.82;2.80;;;;;;;;;;5049428;28;20068;-71
2023/07/10 08:35:06;;;;;;;16.73;3.40;;;;;;;;;;5048833;28;20025;-70
2023/07/10 08:37:33;;;;;;;10.88;2.72;;;;;;;;;;5049512;28;20127;-70
2023/07/10 08:39:59;;;;;;;11.82;2.90;;;;;;;;;;5049651;28;20496;-70
2023/07/10 08:42:29;;;;;;;12.15;3.13;;;;;;;;;;5031820;28;20035;-70
2023/07/10 08:44:55;;;;;;;12.25;2.60;;;;;;;;;;5048599;28;20363;-71
2023/07/10 08:47:24;;;;;;;15.90;2.70;;;;;;;;;;5048984;28;20033;-70
2023/07/10 08:50:19;;;;;;;10.80;2.40;;;;;;;;;;5048556;28;20471;-70
2023/07/10 08:53:10;;;;;;;14.90;3.28;;;;;;;;;;5035588;28;20029;-70
2023/07/10 08:55:42;;;;;;;11.18;2.70;;;;;;;;;;5049069;28;20055;-70
2023/07/10 08:58:17;;;;;;;15.63;3.03;;;;;;;;;;5047340;28;20039;-70
2023/07/10 09:00:45;;;;;;;12.00;2.92;;;;;;;;;;5048972;28;20192;-69
2023/07/10 09:03:35;;;;;;;9.00;2.55;;;;;;;;;;5049837;28;20125;-70
2023/07/10 09:06:03;;;;;;;11.35;2.40;;;;;;;;;;5043424;28;20040;-70
2023/07/10 09:08:31;;;;;;;12.52;2.30;;;;;;;;;;5047708;28;20083;-70
2023/07/10 09:10:58;;;;;;;7.70;1.80;;;;;;;;;;5042436;28;20072;-70
2023/07/10 09:13:39;;;;;;;6.68;1.55;;;;;;;;;;5046000;28;20439;-70
2023/07/10 09:16:13;;;;;;;10.40;1.77;;;;;;;;;;5047231;28;20427;-69
2023/07/10 09:18:47;;;;;;;8.13;1.98;;;;;;;;;;5047607;28;20039;-70
2023/07/10 09:21:29;;;;;;;9.07;1.85;;;;;;;;;;5027684;28;20041;-70
2023/07/10 09:23:56;;;;;;;12.18;2.17;;;;;;;;;;5044624;28;20068;-71
2023/07/10 09:26:27;;;;;;;7.90;1.85;;;;;;;;;;5033188;28;20033;-71
2023/07/10 09:29:18;;;;;;;9.68;2.40;;;;;;;;;;5044334;28;20025;-70
2023/07/10 09:32:03;;;;;;;7.50;1.88;;;;;;;;;;5046726;28;20029;-70
2023/07/10 09:34:31;;;;;;;11.02;2.20;;;;;;;;;;5050006;28;20111;-70
2023/07/10 09:36:57;;;;;;;12.77;2.65;;;;;;;;;;5051001;28;20043;-71
2023/07/10 09:39:31;;;;;;;10.25;2.70;;;;;;;;;;5049884;28;20063;-70
2023/07/10 09:41:58;;;;;;;6.20;1.77;;;;;;;;;;5028122;28;20033;-71
2023/07/10 09:44:30;;;;;;;7.78;2.13;;;;;;;;;;5047688;28;20029;-70
2023/07/10 09:47:00;;;;;;;6.97;2.22;;;;;;;;;;5037037;28;20025;-70
2023/07/10 09:49:31;;;;;;;12.88;2.25;;;;;;;;;;5047881;28;20426;-70
2023/07/10 09:51:58;;;;;;;8.73;2.20;;;;;;;;;;5053125;28;20071;-69
2023/07/10 09:54:25;;;;;;;10.48;2.20;;;;;;;;;;5052391;28;20021;-70
2023/07/10 09:56:52;;;;;;;13.20;2.55;;;;;;;;;;5051296;28;20056;-70
2023/07/10 09:59:20;;;;;;;14.57;2.90;;;;;;;;;;5049854;28;20037;-70
2023/07/10 10:01:47;;;;;;;9.73;2.33;;;;;;;;;;5050440;28;20060;-71
2023/07/10 10:04:13;;;;;;;11.00;2.45;;;;;;;;;;5052533;28;20108;-70
2023/07/10 10:06:41;;;;;;;9.38;2.05;;;;;;;;;;5052716;28;20060;-71
2023/07/10 10:09:16;;;;;;;10.55;2.17;;;;;;;;;;5051409;28;20040;-71
2023/07/10 10:11:45;;;;;;;8.73;2.20;;;;;;;;;;5033834;28;20103;-69
2023/07/10 10:14:14;;;;;;;13.02;2.60;;;;;;;;;;5051153;28;20029;-69
2023/07/10 10:16:43;;;;;;;10.27;2.28;;;;;;;;;;5034162;28;20449;-69
2023/07/10 10:19:17;;;;;;;9.45;2.08;;;;;;;;;;5052415;28;20113;-71
2023/07/10 10:21:43;;;;;;;9.02;2.30;;;;;;;;;;5040557;28;20608;-71
2023/07/10 10:24:12;;;;;;;9.63;1.92;;;;;;;;;;5047944;28;20033;-71
2023/07/10 10:26:46;;;;;;;11.40;2.25;;;;;;;;;;5045382;28;20024;-69
2023/07/10 10:29:31;;;;;;;11.23;2.60;;;;;;;;;;5035401;28;20059;-70
2023/07/10 10:32:00;;;;;;;9.73;2.60;;;;;;;;;;5053934;28;20088;-70
2023/07/10 10:34:44;;;;;;;11.90;2.67;;;;;;;;;;5059663;28;20029;-70
2023/07/10 10:37:29;;;;;;;10.15;2.60;;;;;;;;;;5048645;28;20078;-70
2023/07/10 10:40:14;;;;;;;11.75;3.03;;;;;;;;;;5051761;28;20028;-70
2023/07/10 10:42:44;;;;;;;13.40;2.78;;;;;;;;;;5047026;28;20037;-71
2023/07/10 10:45:17;;;;;;;16.00;3.60;;;;;;;;;;5032741;28;20102;-71
2023/07/10 10:47:51;;;;;;;13.20;2.53;;;;;;;;;;5052047;28;20021;-72
2023/07/10 10:50:17;;;;;;;11.05;2.42;;;;;;;;;;5050308;28;20431;-71
2023/07/10 10:52:43;;;;;;;11.23;2.60;;;;;;;;;;5043272;28;20123;-69
2023/07/10 10:55:18;;;;;;;15.25;2.67;;;;;;;;;;5049895;28;20037;-71
2023/07/10 10:58:06;;;;;;;12.93;2.60;;;;;;;;;;5056283;28;20685;-70
2023/07/10 11:00:51;;;;;;;10.93;2.63;;;;;;;;;;5028418;28;20075;-69
2023/07/10 11:03:38;;;;;;;13.77;3.60;;;;;;;;;;5053225;28;20043;-70
2023/07/10 11:06:27;;;;;;;12.10;2.75;;;;;;;;;;5014479;28;20067;-70
2023/07/10 11:08:56;;;;;;;11.98;2.55;;;;;;;;;;5053990;28;20096;-69
2023/07/10 11:11:32;;;;;;;12.48;2.55;;;;;;;;;;5050461;28;20045;-69
2023/07/10 11:14:00;;;;;;;12.98;2.65;;;;;;;;;;5044480;28;20037;-70
2023/07/10 11:16:29;;;;;;;11.20;2.88;;;;;;;;;;5048350;28;20029;-71
2023/07/10 11:18:55;;;;;;;12.95;3.20;;;;;;;;;;5052464;28;20134;-69
2023/07/10 11:21:22;;;;;;;10.48;2.90;;;;;;;;;;5052212;28;20035;-69
2023/07/10 11:23:52;;;;;;;10.50;2.55;;;;;;;;;;5054558;28;20663;-70
2023/07/10 11:26:21;;;;;;;11.85;2.85;;;;;;;;;;5051236;28;20132;-69
2023/07/10 11:28:52;;;;;;;9.20;2.53;;;;;;;;;;5050004;28;20397;-71
2023/07/10 11:31:31;;;;;;;13.45;2.75;;;;;;;;;;5048233;28;20105;-71
2023/07/10 11:34:20;;;;;;;9.60;2.50;;;;;;;;;;5049483;28;20025;-71
2023/07/10 11:36:47;;;;;;;15.35;2.83;;;;;;;;;;5037646;28;20052;-71
2023/07/10 11:39:20;;;;;;;11.82;2.67;;;;;;;;;;5050206;28;20068;-71
2023/07/10 11:41:46;;;;;;;10.80;2.20;;;;;;;;;;5049136;28;20121;-71
2023/07/10 11:44:21;;;;;;;9.40;2.47;;;;;;;;;;5049746;28;20457;-71
2023/07/10 11:46:56;;;;;;;8.40;2.42;;;;;;;;;;5048714;28;20028;-70
2023/07/10 11:49:23;;;;;;;11.00;2.85;;;;;;;;;;5046172;28;20040;-71
2023/07/10 11:52:08;;;;;;;11.38;2.40;;;;;;;;;;5051381;28;20389;-71
2023/07/10 11:54:34;;;;;;;10.15;2.60;;;;;;;;;;5030170;28;20104;-71
2023/07/10 11:57:10;;;;;;;9.98;2.28;;;;;;;;;;5048234;28;20033;-71
2023/07/10 11:59:37;;;;;;;6.78;2.10;;;;;;;;;;5050468;28;20040;-71
2023/07/10 12:02:20;;;;;;;10.00;1.90;;;;;;;;;;5047298;28;20029;-71
2023/07/10 12:04:46;;;;;;;9.23;1.95;;;;;;;;;;5031443;28;20167;-71
2023/07/10 12:07:13;;;;;;;10.63;1.90;;;;;;;;;;5034569;28;20036;-72
2023/07/10 12:09:39;;;;;;;13.07;2.25;;;;;;;;;;5029470;28;20103;-70
2023/07/10 12:12:10;;;;;;;10.90;2.33;;;;;;;;;;5047169;28;20037;-71
2023/07/10 12:14:36;;;;;;;9.32;2.25;;;;;;;;;;5029254;28;20017;-70
2023/07/10 12:17:04;;;;;;;7.80;2.10;;;;;;;;;;5046239;28;20061;-70
2023/07/10 12:19:38;;;;;;;8.52;1.95;;;;;;;;;;5048571;28;20021;-70
2023/07/10 12:22:16;;;;;;;9.27;1.80;;;;;;;;;;5041699;28;20040;-69
2023/07/10 12:25:08;;;;;;;11.15;2.00;;;;;;;;;;5050110;28;20048;-72
2023/07/10 12:27:35;;;;;;;9.35;2.22;;;;;;;;;;5047655;28;20063;-69
2023/07/10 12:30:02;;;;;;;11.68;2.20;;;;;;;;;;5049601;28;20101;-71
2023/07/10 12:32:30;;;;;;;8.05;2.00;;;;;;;;;;5041932;28;20025;-71
2023/07/10 12:34:57;;;;;;;7.20;2.00;;;;;;;;;;5048189;28;20113;-71
2023/07/10 12:37:23;;;;;;;7.93;2.00;;;;;;;;;;5050997;28;20629;-71
2023/07/10 12:39:51;;;;;;;8.07;1.80;;;;;;;;;;5047281;28;20044;-71
2023/07/10 12:42:26;;;;;;;11.43;2.30;;;;;;;;;;5026200;28;20091;-72
2023/07/10 12:44:52;;;;;;;12.27;2.13;;;;;;;;;;5028992;28;20437;-72
2023/07/10 12:47:18;;;;;;;7.40;1.77;;;;;;;;;;5029430;28;20045;-69
2023/07/10 12:49:51;;;;;;;8.23;1.75;;;;;;;;;;5049125;28;20049;-72
2023/07/10 12:52:18;;;;;;;21.83;3.20;;;;;;;;;;5049243;28;20052;-71
2023/07/10 12:54:47;;;;;;;6.38;1.95;;;;;;;;;;5045764;28;20116;-71
2023/07/10 12:57:19;;;;;;;8.43;1.92;;;;;;;;;;5047351;28;20029;-71
2023/07/10 12:59:46;;;;;;;9.27;2.05;;;;;;;;;;5047141;28;21214;-69
2023/07/10 13:02:12;;;;;;;9.07;2.00;;;;;;;;;;5047278;28;20051;-71
2023/07/10 13:04:39;;;;;;;10.13;1.95;;;;;;;;;;5048855;28;20043;-73
2023/07/10 13:07:15;;;;;;;11.07;2.15;;;;;;;;;;5052760;28;20037;-73
2023/07/10 13:09:41;;;;;;;12.52;2.10;;;;;;;;;;5052685;28;20140;-73
2023/07/10 13:12:18;;;;;;;8.82;2.15;;;;;;;;;;5040469;28;20080;-73
2023/07/10 13:14:45;;;;;;;14.60;3.70;;;;;;;;;;5042585;28;20238;-71
2023/07/10 13:17:11;;;;;;;11.98;2.00;;;;;;;;;;5052662;28;20047;-71
2023/07/10 13:19:38;;;;;;;8.30;1.88;;;;;;;;;;5052697;28;20035;-71
2023/07/10 13:22:10;;;;;;;9.73;2.00;;;;;;;;;;5035081;28;20029;-70
2023/07/10 13:24:36;;;;;;;8.32;1.90;;;;;;;;;;5051544;28;20032;-72
2023/07/10 13:27:03;;;;;;;9.13;2.58;;;;;;;;;;5033507;28;20048;-70
2023/07/10 13:29:29;;;;;;;11.65;3.08;;;;;;;;;;5034785;28;20033;-70
2023/07/10 13:31:55;;;;;;;11.52;2.53;;;;;;;;;;5018883;28;20418;-71
2023/07/10 13:34:21;;;;;;;6.65;1.88;;;;;;;;;;5048795;28;20147;-71
2023/07/10 13:36:47;;;;;;;8.07;2.00;;;;;;;;;;5052698;28;20029;-70
2023/07/10 13:39:17;;;;;;;8.90;1.73;;;;;;;;;;5052660;28;20045;-69
2023/07/10 13:41:44;;;;;;;6.65;1.60;;;;;;;;;;5033784;28;20037;-70
2023/07/10 13:44:11;;;;;;;6.35;1.92;;;;;;;;;;5050870;28;20029;-70
2023/07/10 13:46:37;;;;;;;8.18;1.70;;;;;;;;;;5049485;28;20493;-70
2023/07/10 13:49:06;;;;;;;6.07;2.10;;;;;;;;;;5027890;28;20090;-70
2023/07/10 13:51:34;;;;;;;8.00;1.63;;;;;;;;;;5050010;28;20036;-71
2023/07/10 13:54:01;;;;;;;9.90;2.33;;;;;;;;;;5033431;28;20381;-70
2023/07/10 13:56:31;;;;;;;8.73;1.67;;;;;;;;;;5051365;28;20037;-71
2023/07/10 13:58:57;;;;;;;6.47;1.77;;;;;;;;;;5047760;28;20047;-71
2023/07/10 14:01:33;;;;;;;7.97;1.60;;;;;;;;;;5048640;28;20036;-71
2023/07/10 14:04:00;;;;;;;8.48;2.00;;;;;;;;;;5049407;28;20420;-70
2023/07/10 14:06:36;;;;;;;7.82;2.25;;;;;;;;;;5033222;28;20038;-70
2023/07/10 14:09:05;;;;;;;6.32;1.80;;;;;;;;;;5048134;28;20097;-71
2023/07/10 14:11:31;;;;;;;8.23;2.03;;;;;;;;;;5049447;28;20032;-70
2023/07/10 14:13:58;;;;;;;6.90;1.75;;;;;;;;;;5048868;28;20075;-70
2023/07/10 14:16:28;;;;;;;7.13;1.85;;;;;;;;;;5015454;28;20090;-69
2023/07/10 14:18:55;;;;;;;6.22;2.25;;;;;;;;;;5048856;28;20051;-69
2023/07/10 14:21:21;;;;;;;9.45;2.00;;;;;;;;;;5043226;28;20036;-70
2023/07/10 14:23:47;;;;;;;8.18;1.83;;;;;;;;;;5047314;28;20113;-70
2023/07/10 14:26:22;;;;;;;5.63;1.58;;;;;;;;;;5048666;28;20037;-70
2023/07/10 14:28:49;;;;;;;6.60;1.85;;;;;;;;;;5048593;28;20041;-70
2023/07/10 14:31:15;;;;;;;6.20;1.50;;;;;;;;;;5049582;28;20048;-71
2023/07/10 14:33:42;;;;;;;9.82;1.98;;;;;;;;;;5014409;28;20409;-71
2023/07/10 14:36:20;;;;;;;5.90;1.65;;;;;;;;;;5043242;28;20064;-70
2023/07/10 14:38:46;;;;;;;8.40;1.63;;;;;;;;;;5049042;28;20029;-71